sensor_id;sensor_type;location;lat;lon;timestamp;temperature;humidity
72338;DHT22;60294;64.134;-21.862;2022-09-01T00:01:17;8.80;89.90
72338;DHT22;60294;64.134;-21.862;2022-09-01T00:03:50;8.80;90.30
72338;DHT22;60294;64.134;-21.862;2022-09-01T00:06:18;8.80;90.60
72338;DHT22;60294;64.134;-21.862;2022-09-01T00:08:56;8.80;90.50
72338;DHT22;60294;64.134;-21.862;2022-09-01T00:11:24;8.80;90.70
72338;DHT22;60294;64.134;-21.862;2022-09-01T00:13:51;8.80;90.90
72338;DHT22;60294;64.134;-21.862;2022-09-01T00:16:18;8.70;91.20
72338;DHT22;60294;64.134;-21.862;2022-09-01T00:18:48;8.70;91.70
72338;DHT22;60294;64.134;-21.862;2022-09-01T00:21:16;8.60;92.50
72338;DHT22;60294;64.134;-21.862;2022-09-01T00:23:43;8.60;92.50
72338;DHT22;60294;64.134;-21.862;2022-09-01T00:26:09;8.60;92.40
72338;DHT22;60294;64.134;-21.862;2022-09-01T00:28:36;8.60;92.60
72338;DHT22;60294;64.134;-21.862;2022-09-01T00:31:04;8.60;92.80
72338;DHT22;60294;64.134;-21.862;2022-09-01T00:33:31;8.60;92.70
72338;DHT22;60294;64.134;-21.862;2022-09-01T00:35:58;8.60;91.90
72338;DHT22;60294;64.134;-21.862;2022-09-01T00:38:24;8.60;92.20
72338;DHT22;60294;64.134;-21.862;2022-09-01T00:40:50;8.60;91.70
72338;DHT22;60294;64.134;-21.862;2022-09-01T00:43:34;8.60;91.80
72338;DHT22;60294;64.134;-21.862;2022-09-01T00:46:05;8.60;92.10
72338;DHT22;60294;64.134;-21.862;2022-09-01T00:48:31;8.60;92.20
72338;DHT22;60294;64.134;-21.862;2022-09-01T00:50:57;8.50;92.20
72338;DHT22;60294;64.134;-21.862;2022-09-01T00:53:24;8.50;91.90
72338;DHT22;60294;64.134;-21.862;2022-09-01T00:55:50;8.50;91.70
72338;DHT22;60294;64.134;-21.862;2022-09-01T00:58:16;8.50;90.20
72338;DHT22;60294;64.134;-21.862;2022-09-01T01:00:45;8.50;89.70
72338;DHT22;60294;64.134;-21.862;2022-09-01T01:03:13;8.40;89.70
72338;DHT22;60294;64.134;-21.862;2022-09-01T01:05:54;8.50;89.90
72338;DHT22;60294;64.134;-21.862;2022-09-01T01:08:34;8.50;90.00
72338;DHT22;60294;64.134;-21.862;2022-09-01T01:11:13;8.50;89.70
72338;DHT22;60294;64.134;-21.862;2022-09-01T01:13:51;8.50;89.70
72338;DHT22;60294;64.134;-21.862;2022-09-01T01:16:20;8.50;89.70
72338;DHT22;60294;64.134;-21.862;2022-09-01T01:18:46;8.50;89.30
72338;DHT22;60294;64.134;-21.862;2022-09-01T01:21:22;8.50;89.70
72338;DHT22;60294;64.134;-21.862;2022-09-01T01:24:32;8.50;89.70
72338;DHT22;60294;64.134;-21.862;2022-09-01T01:26:59;8.60;89.80
72338;DHT22;60294;64.134;-21.862;2022-09-01T01:29:29;8.50;89.80
72338;DHT22;60294;64.134;-21.862;2022-09-01T01:31:56;8.60;89.70
72338;DHT22;60294;64.134;-21.862;2022-09-01T01:34:22;8.60;89.80
72338;DHT22;60294;64.134;-21.862;2022-09-01T01:36:49;8.60;89.60
72338;DHT22;60294;64.134;-21.862;2022-09-01T01:39:21;8.60;89.50
72338;DHT22;60294;64.134;-21.862;2022-09-01T01:41:50;8.60;89.60
72338;DHT22;60294;64.134;-21.862;2022-09-01T01:44:20;8.60;89.50
72338;DHT22;60294;64.134;-21.862;2022-09-01T01:46:49;8.60;89.60
72338;DHT22;60294;64.134;-21.862;2022-09-01T01:49:17;8.60;89.70
72338;DHT22;60294;64.134;-21.862;2022-09-01T01:51:50;8.60;90.00
72338;DHT22;60294;64.134;-21.862;2022-09-01T01:54:21;8.60;89.80
72338;DHT22;60294;64.134;-21.862;2022-09-01T01:56:47;8.60;89.80
72338;DHT22;60294;64.134;-21.862;2022-09-01T01:59:13;8.60;89.90
72338;DHT22;60294;64.134;-21.862;2022-09-01T02:01:42;8.60;90.10
72338;DHT22;60294;64.134;-21.862;2022-09-01T02:04:09;8.50;89.90
72338;DHT22;60294;64.134;-21.862;2022-09-01T02:06:36;8.50;90.00
72338;DHT22;60294;64.134;-21.862;2022-09-01T02:09:06;8.40;90.00
72338;DHT22;60294;64.134;-21.862;2022-09-01T02:11:32;8.40;90.20
72338;DHT22;60294;64.134;-21.862;2022-09-01T02:14:03;8.30;90.00
72338;DHT22;60294;64.134;-21.862;2022-09-01T02:16:30;8.20;90.00
72338;DHT22;60294;64.134;-21.862;2022-09-01T02:19:00;8.30;89.80
72338;DHT22;60294;64.134;-21.862;2022-09-01T02:21:26;8.10;89.70
72338;DHT22;60294;64.134;-21.862;2022-09-01T02:23:55;8.10;89.70
72338;DHT22;60294;64.134;-21.862;2022-09-01T02:26:35;8.10;89.80
72338;DHT22;60294;64.134;-21.862;2022-09-01T02:29:06;8.10;89.80
72338;DHT22;60294;64.134;-21.862;2022-09-01T02:31:35;8.10;89.80
72338;DHT22;60294;64.134;-21.862;2022-09-01T02:34:07;8.10;89.90
72338;DHT22;60294;64.134;-21.862;2022-09-01T02:36:40;8.10;89.80
72338;DHT22;60294;64.134;-21.862;2022-09-01T02:39:09;8.00;89.40
72338;DHT22;60294;64.134;-21.862;2022-09-01T02:41:35;8.00;89.30
72338;DHT22;60294;64.134;-21.862;2022-09-01T02:44:03;8.00;89.30
72338;DHT22;60294;64.134;-21.862;2022-09-01T02:46:39;7.90;89.70
72338;DHT22;60294;64.134;-21.862;2022-09-01T02:49:14;8.00;90.20
72338;DHT22;60294;64.134;-21.862;2022-09-01T02:51:49;7.90;89.90
72338;DHT22;60294;64.134;-21.862;2022-09-01T02:54:20;7.90;90.20
72338;DHT22;60294;64.134;-21.862;2022-09-01T02:56:48;7.80;90.00
72338;DHT22;60294;64.134;-21.862;2022-09-01T02:59:15;7.80;89.80
72338;DHT22;60294;64.134;-21.862;2022-09-01T03:01:41;7.80;89.50
72338;DHT22;60294;64.134;-21.862;2022-09-01T03:04:10;7.80;88.90
72338;DHT22;60294;64.134;-21.862;2022-09-01T03:06:37;7.80;88.80
72338;DHT22;60294;64.134;-21.862;2022-09-01T03:09:06;7.90;88.90
72338;DHT22;60294;64.134;-21.862;2022-09-01T03:11:35;7.90;88.30
72338;DHT22;60294;64.134;-21.862;2022-09-01T03:14:01;8.00;88.20
72338;DHT22;60294;64.134;-21.862;2022-09-01T03:16:27;8.00;88.30
72338;DHT22;60294;64.134;-21.862;2022-09-01T03:18:55;8.10;88.20
72338;DHT22;60294;64.134;-21.862;2022-09-01T03:21:21;8.10;88.10
72338;DHT22;60294;64.134;-21.862;2022-09-01T03:23:49;8.10;88.00
72338;DHT22;60294;64.134;-21.862;2022-09-01T03:26:16;8.10;88.00
72338;DHT22;60294;64.134;-21.862;2022-09-01T03:28:44;8.20;88.10
72338;DHT22;60294;64.134;-21.862;2022-09-01T03:31:10;8.20;88.30
72338;DHT22;60294;64.134;-21.862;2022-09-01T03:33:36;8.20;88.10
72338;DHT22;60294;64.134;-21.862;2022-09-01T03:36:04;8.20;87.90
72338;DHT22;60294;64.134;-21.862;2022-09-01T03:38:30;8.20;88.20
72338;DHT22;60294;64.134;-21.862;2022-09-01T03:41:01;8.10;88.70
72338;DHT22;60294;64.134;-21.862;2022-09-01T03:43:32;8.10;89.00
72338;DHT22;60294;64.134;-21.862;2022-09-01T03:45:59;8.00;90.10
72338;DHT22;60294;64.134;-21.862;2022-09-01T03:48:27;7.90;89.90
72338;DHT22;60294;64.134;-21.862;2022-09-01T03:50:55;8.00;91.00
72338;DHT22;60294;64.134;-21.862;2022-09-01T03:53:22;7.90;90.60
72338;DHT22;60294;64.134;-21.862;2022-09-01T03:55:52;7.90;90.80
72338;DHT22;60294;64.134;-21.862;2022-09-01T03:58:19;7.90;90.90
72338;DHT22;60294;64.134;-21.862;2022-09-01T04:00:51;7.90;91.20
72338;DHT22;60294;64.134;-21.862;2022-09-01T04:03:21;7.80;90.80
72338;DHT22;60294;64.134;-21.862;2022-09-01T04:05:48;7.70;90.20
72338;DHT22;60294;64.134;-21.862;2022-09-01T04:08:16;7.70;90.10
72338;DHT22;60294;64.134;-21.862;2022-09-01T04:10:49;7.60;90.20
72338;DHT22;60294;64.134;-21.862;2022-09-01T04:13:16;7.60;90.30
72338;DHT22;60294;64.134;-21.862;2022-09-01T04:15:42;7.50;90.20
72338;DHT22;60294;64.134;-21.862;2022-09-01T04:18:07;7.50;90.50
72338;DHT22;60294;64.134;-21.862;2022-09-01T04:20:49;7.40;90.50
72338;DHT22;60294;64.134;-21.862;2022-09-01T04:23:16;7.40;90.60
72338;DHT22;60294;64.134;-21.862;2022-09-01T04:25:58;7.30;90.50
72338;DHT22;60294;64.134;-21.862;2022-09-01T04:28:31;7.20;90.30
72338;DHT22;60294;64.134;-21.862;2022-09-01T04:31:02;7.20;90.50
72338;DHT22;60294;64.134;-21.862;2022-09-01T04:33:31;7.20;90.60
72338;DHT22;60294;64.134;-21.862;2022-09-01T04:36:18;7.20;90.80
72338;DHT22;60294;64.134;-21.862;2022-09-01T04:38:51;7.20;91.00
72338;DHT22;60294;64.134;-21.862;2022-09-01T04:41:21;7.10;90.80
72338;DHT22;60294;64.134;-21.862;2022-09-01T04:43:51;7.10;90.60
72338;DHT22;60294;64.134;-21.862;2022-09-01T04:46:21;7.10;90.40
72338;DHT22;60294;64.134;-21.862;2022-09-01T04:48:50;7.10;90.40
72338;DHT22;60294;64.134;-21.862;2022-09-01T04:51:16;7.10;90.40
72338;DHT22;60294;64.134;-21.862;2022-09-01T04:53:45;7.00;90.20
72338;DHT22;60294;64.134;-21.862;2022-09-01T04:56:17;7.00;90.20
72338;DHT22;60294;64.134;-21.862;2022-09-01T04:58:45;6.90;90.20
72338;DHT22;60294;64.134;-21.862;2022-09-01T05:01:19;6.90;90.10
72338;DHT22;60294;64.134;-21.862;2022-09-01T05:03:47;6.80;90.20
72338;DHT22;60294;64.134;-21.862;2022-09-01T05:06:19;6.80;90.70
72338;DHT22;60294;64.134;-21.862;2022-09-01T05:08:45;6.80;90.80
72338;DHT22;60294;64.134;-21.862;2022-09-01T05:11:12;6.70;91.00
72338;DHT22;60294;64.134;-21.862;2022-09-01T05:13:47;6.70;91.10
72338;DHT22;60294;64.134;-21.862;2022-09-01T05:16:17;6.70;91.30
72338;DHT22;60294;64.134;-21.862;2022-09-01T05:18:47;6.60;91.10
72338;DHT22;60294;64.134;-21.862;2022-09-01T05:21:16;6.60;91.60
72338;DHT22;60294;64.134;-21.862;2022-09-01T05:23:45;6.60;91.80
72338;DHT22;60294;64.134;-21.862;2022-09-01T05:26:20;6.60;91.80
72338;DHT22;60294;64.134;-21.862;2022-09-01T05:28:49;6.60;91.90
72338;DHT22;60294;64.134;-21.862;2022-09-01T05:31:16;6.60;92.20
72338;DHT22;60294;64.134;-21.862;2022-09-01T05:33:47;6.60;92.20
72338;DHT22;60294;64.134;-21.862;2022-09-01T05:36:19;6.60;92.30
72338;DHT22;60294;64.134;-21.862;2022-09-01T05:38:46;6.60;92.30
72338;DHT22;60294;64.134;-21.862;2022-09-01T05:41:15;6.70;92.00
72338;DHT22;60294;64.134;-21.862;2022-09-01T05:43:42;6.70;91.60
72338;DHT22;60294;64.134;-21.862;2022-09-01T05:46:19;6.70;91.30
72338;DHT22;60294;64.134;-21.862;2022-09-01T05:48:47;6.80;91.60
72338;DHT22;60294;64.134;-21.862;2022-09-01T05:51:15;6.80;91.20
72338;DHT22;60294;64.134;-21.862;2022-09-01T05:53:44;6.80;91.10
72338;DHT22;60294;64.134;-21.862;2022-09-01T05:56:11;6.80;90.50
72338;DHT22;60294;64.134;-21.862;2022-09-01T05:58:38;6.90;90.80
72338;DHT22;60294;64.134;-21.862;2022-09-01T06:01:05;6.90;90.70
72338;DHT22;60294;64.134;-21.862;2022-09-01T06:03:32;6.90;90.30
72338;DHT22;60294;64.134;-21.862;2022-09-01T06:06:05;6.90;89.80
72338;DHT22;60294;64.134;-21.862;2022-09-01T06:08:34;7.00;89.70
72338;DHT22;60294;64.134;-21.862;2022-09-01T06:11:01;7.00;89.20
72338;DHT22;60294;64.134;-21.862;2022-09-01T06:13:28;6.90;89.00
72338;DHT22;60294;64.134;-21.862;2022-09-01T06:15:54;6.90;88.90
72338;DHT22;60294;64.134;-21.862;2022-09-01T06:18:22;6.90;89.00
72338;DHT22;60294;64.134;-21.862;2022-09-01T06:20:48;6.90;88.90
72338;DHT22;60294;64.134;-21.862;2022-09-01T06:23:15;7.00;89.00
72338;DHT22;60294;64.134;-21.862;2022-09-01T06:25:44;6.90;88.60
72338;DHT22;60294;64.134;-21.862;2022-09-01T06:28:13;7.00;89.50
72338;DHT22;60294;64.134;-21.862;2022-09-01T06:30:39;7.00;89.00
72338;DHT22;60294;64.134;-21.862;2022-09-01T06:33:05;7.00;89.20
72338;DHT22;60294;64.134;-21.862;2022-09-01T06:35:36;7.00;89.10
72338;DHT22;60294;64.134;-21.862;2022-09-01T06:38:04;7.00;89.40
72338;DHT22;60294;64.134;-21.862;2022-09-01T06:40:32;7.10;89.10
72338;DHT22;60294;64.134;-21.862;2022-09-01T06:42:58;7.10;89.30
72338;DHT22;60294;64.134;-21.862;2022-09-01T06:45:33;7.10;89.30
72338;DHT22;60294;64.134;-21.862;2022-09-01T06:47:59;7.10;89.80
72338;DHT22;60294;64.134;-21.862;2022-09-01T06:50:26;7.10;89.10
72338;DHT22;60294;64.134;-21.862;2022-09-01T06:52:52;7.10;89.10
72338;DHT22;60294;64.134;-21.862;2022-09-01T06:55:26;7.10;88.80
72338;DHT22;60294;64.134;-21.862;2022-09-01T06:57:58;7.10;88.80
72338;DHT22;60294;64.134;-21.862;2022-09-01T07:00:25;7.10;88.70
72338;DHT22;60294;64.134;-21.862;2022-09-01T07:02:55;7.10;88.40
72338;DHT22;60294;64.134;-21.862;2022-09-01T07:05:22;7.10;88.30
72338;DHT22;60294;64.134;-21.862;2022-09-01T07:07:48;7.10;88.50
72338;DHT22;60294;64.134;-21.862;2022-09-01T07:10:23;7.10;88.90
72338;DHT22;60294;64.134;-21.862;2022-09-01T07:12:55;7.10;88.50
72338;DHT22;60294;64.134;-21.862;2022-09-01T07:15:22;7.10;88.70
72338;DHT22;60294;64.134;-21.862;2022-09-01T07:17:50;7.20;88.90
72338;DHT22;60294;64.134;-21.862;2022-09-01T07:20:19;7.30;89.00
72338;DHT22;60294;64.134;-21.862;2022-09-01T07:22:48;7.40;89.10
72338;DHT22;60294;64.134;-21.862;2022-09-01T07:25:14;7.40;89.00
72338;DHT22;60294;64.134;-21.862;2022-09-01T07:27:43;7.50;88.80
72338;DHT22;60294;64.134;-21.862;2022-09-01T07:30:21;7.50;88.60
72338;DHT22;60294;64.134;-21.862;2022-09-01T07:32:48;7.60;88.70
72338;DHT22;60294;64.134;-21.862;2022-09-01T07:35:18;7.70;88.60
72338;DHT22;60294;64.134;-21.862;2022-09-01T07:37:45;7.70;88.10
72338;DHT22;60294;64.134;-21.862;2022-09-01T07:40:16;7.80;88.00
72338;DHT22;60294;64.134;-21.862;2022-09-01T07:42:45;7.80;88.10
72338;DHT22;60294;64.134;-21.862;2022-09-01T07:45:13;8.00;88.20
72338;DHT22;60294;64.134;-21.862;2022-09-01T07:47:39;8.00;88.30
72338;DHT22;60294;64.134;-21.862;2022-09-01T07:50:07;8.10;88.40
72338;DHT22;60294;64.134;-21.862;2022-09-01T07:52:34;8.20;88.20
72338;DHT22;60294;64.134;-21.862;2022-09-01T07:55:10;8.30;87.80
72338;DHT22;60294;64.134;-21.862;2022-09-01T07:57:40;8.40;87.30
72338;DHT22;60294;64.134;-21.862;2022-09-01T08:00:11;8.50;87.90
72338;DHT22;60294;64.134;-21.862;2022-09-01T08:02:37;8.60;87.00
72338;DHT22;60294;64.134;-21.862;2022-09-01T08:05:09;8.60;87.40
72338;DHT22;60294;64.134;-21.862;2022-09-01T08:07:36;8.70;86.90
72338;DHT22;60294;64.134;-21.862;2022-09-01T08:10:06;8.80;86.90
72338;DHT22;60294;64.134;-21.862;2022-09-01T08:12:34;8.90;86.60
72338;DHT22;60294;64.134;-21.862;2022-09-01T08:15:04;9.10;86.40
72338;DHT22;60294;64.134;-21.862;2022-09-01T08:17:30;9.10;86.00
72338;DHT22;60294;64.134;-21.862;2022-09-01T08:19:56;9.10;85.70
72338;DHT22;60294;64.134;-21.862;2022-09-01T08:22:22;9.20;85.30
72338;DHT22;60294;64.134;-21.862;2022-09-01T08:24:51;9.30;84.70
72338;DHT22;60294;64.134;-21.862;2022-09-01T08:27:17;9.40;84.90
72338;DHT22;60294;64.134;-21.862;2022-09-01T08:29:43;9.40;84.50
72338;DHT22;60294;64.134;-21.862;2022-09-01T08:32:09;9.50;83.90
72338;DHT22;60294;64.134;-21.862;2022-09-01T08:34:38;9.60;83.90
72338;DHT22;60294;64.134;-21.862;2022-09-01T08:37:05;9.60;83.40
72338;DHT22;60294;64.134;-21.862;2022-09-01T08:39:31;9.70;82.40
72338;DHT22;60294;64.134;-21.862;2022-09-01T08:47:16;9.80;82.20
72338;DHT22;60294;64.134;-21.862;2022-09-01T08:49:44;9.90;82.20
72338;DHT22;60294;64.134;-21.862;2022-09-01T08:55:15;10.10;82.30
72338;DHT22;60294;64.134;-21.862;2022-09-01T08:57:44;10.10;82.60
72338;DHT22;60294;64.134;-21.862;2022-09-01T09:00:14;10.20;81.60
72338;DHT22;60294;64.134;-21.862;2022-09-01T09:03:04;10.20;81.90
72338;DHT22;60294;64.134;-21.862;2022-09-01T09:11:16;10.70;81.20
72338;DHT22;60294;64.134;-21.862;2022-09-01T09:16:14;11.00;80.30
72338;DHT22;60294;64.134;-21.862;2022-09-01T09:18:44;11.10;80.10
72338;DHT22;60294;64.134;-21.862;2022-09-01T09:21:18;11.20;77.20
72338;DHT22;60294;64.134;-21.862;2022-09-01T09:23:48;11.10;77.00
72338;DHT22;60294;64.134;-21.862;2022-09-01T09:26:15;11.10;75.90
72338;DHT22;60294;64.134;-21.862;2022-09-01T09:28:42;11.10;76.10
72338;DHT22;60294;64.134;-21.862;2022-09-01T09:31:29;11.10;76.30
72338;DHT22;60294;64.134;-21.862;2022-09-01T09:33:55;11.30;77.80
72338;DHT22;60294;64.134;-21.862;2022-09-01T09:36:33;11.40;77.30
72338;DHT22;60294;64.134;-21.862;2022-09-01T09:39:11;11.50;76.70
72338;DHT22;60294;64.134;-21.862;2022-09-01T09:41:39;11.50;75.70
72338;DHT22;60294;64.134;-21.862;2022-09-01T09:44:25;11.70;76.30
72338;DHT22;60294;64.134;-21.862;2022-09-01T09:46:51;11.80;75.80
72338;DHT22;60294;64.134;-21.862;2022-09-01T09:51:56;11.60;76.10
72338;DHT22;60294;64.134;-21.862;2022-09-01T09:57:11;11.70;75.20
72338;DHT22;60294;64.134;-21.862;2022-09-01T09:59:46;11.60;73.10
72338;DHT22;60294;64.134;-21.862;2022-09-01T10:02:35;11.20;73.50
72338;DHT22;60294;64.134;-21.862;2022-09-01T10:07:50;11.10;73.70
72338;DHT22;60294;64.134;-21.862;2022-09-01T10:12:58;11.20;75.00
72338;DHT22;60294;64.134;-21.862;2022-09-01T10:15:28;11.30;74.50
72338;DHT22;60294;64.134;-21.862;2022-09-01T10:18:03;11.20;74.20
72338;DHT22;60294;64.134;-21.862;2022-09-01T10:20:33;11.30;74.10
72338;DHT22;60294;64.134;-21.862;2022-09-01T10:23:02;11.40;75.20
72338;DHT22;60294;64.134;-21.862;2022-09-01T10:25:30;11.40;73.40
72338;DHT22;60294;64.134;-21.862;2022-09-01T10:28:21;11.40;74.70
72338;DHT22;60294;64.134;-21.862;2022-09-01T10:30:51;11.20;74.80
72338;DHT22;60294;64.134;-21.862;2022-09-01T10:33:19;11.10;75.70
72338;DHT22;60294;64.134;-21.862;2022-09-01T10:35:49;11.10;76.00
72338;DHT22;60294;64.134;-21.862;2022-09-01T10:38:24;11.10;73.70
72338;DHT22;60294;64.134;-21.862;2022-09-01T10:40:56;11.00;72.10
72338;DHT22;60294;64.134;-21.862;2022-09-01T10:43:37;10.90;71.50
72338;DHT22;60294;64.134;-21.862;2022-09-01T10:46:40;10.80;72.80
72338;DHT22;60294;64.134;-21.862;2022-09-01T10:52:07;10.90;72.40
72338;DHT22;60294;64.134;-21.862;2022-09-01T10:57:11;10.90;73.50
72338;DHT22;60294;64.134;-21.862;2022-09-01T10:59:46;10.90;72.30
72338;DHT22;60294;64.134;-21.862;2022-09-01T11:02:21;11.00;71.40
72338;DHT22;60294;64.134;-21.862;2022-09-01T11:10:51;11.20;70.00
72338;DHT22;60294;64.134;-21.862;2022-09-01T11:13:22;11.30;68.60
72338;DHT22;60294;64.134;-21.862;2022-09-01T11:15:49;11.40;68.80
72338;DHT22;60294;64.134;-21.862;2022-09-01T11:18:17;11.50;67.60
72338;DHT22;60294;64.134;-21.862;2022-09-01T11:20:48;11.60;69.40
72338;DHT22;60294;64.134;-21.862;2022-09-01T11:23:27;11.60;68.20
72338;DHT22;60294;64.134;-21.862;2022-09-01T11:26:00;11.70;68.30
72338;DHT22;60294;64.134;-21.862;2022-09-01T11:34:32;12.10;64.80
72338;DHT22;60294;64.134;-21.862;2022-09-01T11:41:54;12.70;63.60
72338;DHT22;60294;64.134;-21.862;2022-09-01T11:46:58;12.90;63.00
72338;DHT22;60294;64.134;-21.862;2022-09-01T11:49:30;12.90;61.50
72338;DHT22;60294;64.134;-21.862;2022-09-01T11:51:58;13.10;61.80
72338;DHT22;60294;64.134;-21.862;2022-09-01T11:54:26;13.30;63.00
72338;DHT22;60294;64.134;-21.862;2022-09-01T11:56:53;13.60;61.20
72338;DHT22;60294;64.134;-21.862;2022-09-01T11:59:33;14.00;59.50
72338;DHT22;60294;64.134;-21.862;2022-09-01T12:02:00;14.10;58.50
72338;DHT22;60294;64.134;-21.862;2022-09-01T12:04:33;14.00;56.80
72338;DHT22;60294;64.134;-21.862;2022-09-01T12:09:37;13.50;56.80
72338;DHT22;60294;64.134;-21.862;2022-09-01T12:12:05;13.40;58.00
72338;DHT22;60294;64.134;-21.862;2022-09-01T12:14:32;13.40;59.50
72338;DHT22;60294;64.134;-21.862;2022-09-01T12:17:04;13.40;59.10
72338;DHT22;60294;64.134;-21.862;2022-09-01T12:19:32;13.40;58.80
72338;DHT22;60294;64.134;-21.862;2022-09-01T12:22:05;13.40;59.50
72338;DHT22;60294;64.134;-21.862;2022-09-01T12:24:44;13.50;59.90
72338;DHT22;60294;64.134;-21.862;2022-09-01T12:27:10;13.60;60.50
72338;DHT22;60294;64.134;-21.862;2022-09-01T12:29:37;13.60;60.90
72338;DHT22;60294;64.134;-21.862;2022-09-01T12:32:03;13.60;59.10
72338;DHT22;60294;64.134;-21.862;2022-09-01T12:37:31;13.50;59.50
72338;DHT22;60294;64.134;-21.862;2022-09-01T12:39:57;13.30;60.00
72338;DHT22;60294;64.134;-21.862;2022-09-01T12:42:32;13.20;61.20
72338;DHT22;60294;64.134;-21.862;2022-09-01T12:45:04;13.30;61.70
72338;DHT22;60294;64.134;-21.862;2022-09-01T12:52:48;13.60;61.70
72338;DHT22;60294;64.134;-21.862;2022-09-01T12:55:21;14.00;61.00
72338;DHT22;60294;64.134;-21.862;2022-09-01T12:57:52;14.40;58.40
72338;DHT22;60294;64.134;-21.862;2022-09-01T13:00:26;14.50;55.10
72338;DHT22;60294;64.134;-21.862;2022-09-01T13:05:30;14.60;54.60
72338;DHT22;60294;64.134;-21.862;2022-09-01T13:08:03;15.00;55.00
72338;DHT22;60294;64.134;-21.862;2022-09-01T13:10:32;15.10;54.80
72338;DHT22;60294;64.134;-21.862;2022-09-01T13:12:59;15.10;53.10
72338;DHT22;60294;64.134;-21.862;2022-09-01T13:15:26;15.10;54.90
72338;DHT22;60294;64.134;-21.862;2022-09-01T13:17:53;15.20;54.80
72338;DHT22;60294;64.134;-21.862;2022-09-01T13:20:19;15.10;54.70
72338;DHT22;60294;64.134;-21.862;2022-09-01T13:22:45;14.80;53.50
72338;DHT22;60294;64.134;-21.862;2022-09-01T13:25:12;15.00;54.80
72338;DHT22;60294;64.134;-21.862;2022-09-01T13:27:39;15.20;53.90
72338;DHT22;60294;64.134;-21.862;2022-09-01T13:30:13;15.00;51.50
72338;DHT22;60294;64.134;-21.862;2022-09-01T13:32:41;15.10;52.60
72338;DHT22;60294;64.134;-21.862;2022-09-01T13:35:13;15.10;50.90
72338;DHT22;60294;64.134;-21.862;2022-09-01T13:37:40;15.20;52.40
72338;DHT22;60294;64.134;-21.862;2022-09-01T13:40:07;15.40;52.10
72338;DHT22;60294;64.134;-21.862;2022-09-01T13:42:38;15.30;51.10
72338;DHT22;60294;64.134;-21.862;2022-09-01T13:45:04;15.20;50.50
72338;DHT22;60294;64.134;-21.862;2022-09-01T13:47:30;15.30;50.80
72338;DHT22;60294;64.134;-21.862;2022-09-01T13:49:57;15.40;51.90
72338;DHT22;60294;64.134;-21.862;2022-09-01T13:52:23;15.50;50.90
72338;DHT22;60294;64.134;-21.862;2022-09-01T13:54:49;15.20;51.20
72338;DHT22;60294;64.134;-21.862;2022-09-01T13:57:15;15.30;52.00
72338;DHT22;60294;64.134;-21.862;2022-09-01T13:59:42;15.20;51.70
72338;DHT22;60294;64.134;-21.862;2022-09-01T14:02:08;15.00;52.20
72338;DHT22;60294;64.134;-21.862;2022-09-01T14:04:35;14.90;52.80
72338;DHT22;60294;64.134;-21.862;2022-09-01T14:07:01;15.00;50.80
72338;DHT22;60294;64.134;-21.862;2022-09-01T14:09:27;14.90;52.10
72338;DHT22;60294;64.134;-21.862;2022-09-01T14:11:53;14.80;52.20
72338;DHT22;60294;64.134;-21.862;2022-09-01T14:14:19;14.80;53.40
72338;DHT22;60294;64.134;-21.862;2022-09-01T14:16:45;14.60;53.70
72338;DHT22;60294;64.134;-21.862;2022-09-01T14:19:12;14.30;54.40
72338;DHT22;60294;64.134;-21.862;2022-09-01T14:21:38;14.10;55.10
72338;DHT22;60294;64.134;-21.862;2022-09-01T14:24:04;14.00;56.30
72338;DHT22;60294;64.134;-21.862;2022-09-01T14:26:30;13.90;55.70
72338;DHT22;60294;64.134;-21.862;2022-09-01T14:28:56;14.00;56.60
72338;DHT22;60294;64.134;-21.862;2022-09-01T14:31:22;13.70;57.40
72338;DHT22;60294;64.134;-21.862;2022-09-01T14:33:49;13.80;57.70
72338;DHT22;60294;64.134;-21.862;2022-09-01T14:36:19;13.90;57.00
72338;DHT22;60294;64.134;-21.862;2022-09-01T14:38:45;14.20;57.50
72338;DHT22;60294;64.134;-21.862;2022-09-01T14:41:16;14.40;57.90
72338;DHT22;60294;64.134;-21.862;2022-09-01T14:43:46;14.70;57.20
72338;DHT22;60294;64.134;-21.862;2022-09-01T14:46:13;14.80;55.10
72338;DHT22;60294;64.134;-21.862;2022-09-01T14:48:39;14.80;55.70
72338;DHT22;60294;64.134;-21.862;2022-09-01T14:51:07;14.80;54.10
72338;DHT22;60294;64.134;-21.862;2022-09-01T14:53:34;14.80;53.90
72338;DHT22;60294;64.134;-21.862;2022-09-01T14:56:01;14.80;53.60
72338;DHT22;60294;64.134;-21.862;2022-09-01T14:58:27;14.70;53.70
72338;DHT22;60294;64.134;-21.862;2022-09-01T15:00:54;14.60;54.90
72338;DHT22;60294;64.134;-21.862;2022-09-01T15:03:24;14.80;53.90
72338;DHT22;60294;64.134;-21.862;2022-09-01T15:05:54;16.40;51.00
72338;DHT22;60294;64.134;-21.862;2022-09-01T15:08:20;16.00;52.00
72338;DHT22;60294;64.134;-21.862;2022-09-01T15:10:48;16.20;52.50
72338;DHT22;60294;64.134;-21.862;2022-09-01T15:13:14;16.10;51.70
72338;DHT22;60294;64.134;-21.862;2022-09-01T15:15:40;16.00;51.90
72338;DHT22;60294;64.134;-21.862;2022-09-01T15:18:06;15.90;51.70
72338;DHT22;60294;64.134;-21.862;2022-09-01T15:20:31;15.70;52.90
72338;DHT22;60294;64.134;-21.862;2022-09-01T15:23:15;15.50;52.40
72338;DHT22;60294;64.134;-21.862;2022-09-01T15:25:41;15.50;52.90
72338;DHT22;60294;64.134;-21.862;2022-09-01T15:28:07;15.50;52.50
72338;DHT22;60294;64.134;-21.862;2022-09-01T15:30:34;15.40;52.40
72338;DHT22;60294;64.134;-21.862;2022-09-01T15:33:00;15.40;53.00
72338;DHT22;60294;64.134;-21.862;2022-09-01T15:35:27;15.30;53.20
72338;DHT22;60294;64.134;-21.862;2022-09-01T15:37:53;15.30;52.40
72338;DHT22;60294;64.134;-21.862;2022-09-01T15:40:22;15.20;52.50
72338;DHT22;60294;64.134;-21.862;2022-09-01T15:42:48;15.00;53.70
72338;DHT22;60294;64.134;-21.862;2022-09-01T15:45:17;15.00;54.10
72338;DHT22;60294;64.134;-21.862;2022-09-01T15:47:44;14.60;54.30
72338;DHT22;60294;64.134;-21.862;2022-09-01T15:50:15;14.40;54.50
72338;DHT22;60294;64.134;-21.862;2022-09-01T15:52:53;14.20;55.50
72338;DHT22;60294;64.134;-21.862;2022-09-01T15:55:23;14.10;55.90
72338;DHT22;60294;64.134;-21.862;2022-09-01T15:57:50;14.00;55.70
72338;DHT22;60294;64.134;-21.862;2022-09-01T16:00:18;13.90;57.10
72338;DHT22;60294;64.134;-21.862;2022-09-01T16:02:44;13.80;57.40
72338;DHT22;60294;64.134;-21.862;2022-09-01T16:05:11;13.70;57.50
72338;DHT22;60294;64.134;-21.862;2022-09-01T16:07:37;13.70;58.00
72338;DHT22;60294;64.134;-21.862;2022-09-01T16:10:03;13.60;56.80
72338;DHT22;60294;64.134;-21.862;2022-09-01T16:12:30;13.60;58.50
72338;DHT22;60294;64.134;-21.862;2022-09-01T16:14:57;13.50;59.80
72338;DHT22;60294;64.134;-21.862;2022-09-01T16:20:18;13.40;61.40
72338;DHT22;60294;64.134;-21.862;2022-09-01T16:22:53;13.20;62.10
72338;DHT22;60294;64.134;-21.862;2022-09-01T16:25:30;13.10;59.80
72338;DHT22;60294;64.134;-21.862;2022-09-01T16:28:03;13.10;60.50
72338;DHT22;60294;64.134;-21.862;2022-09-01T16:30:31;13.20;62.10
72338;DHT22;60294;64.134;-21.862;2022-09-01T16:33:01;13.10;64.60